Time;durP1;ratioP1;P1;durP2;ratioP2;P2;SDS_P1;SDS_P2;PMS_P1;PMS_P2;Temp;Humidity;BMP_temperature;BMP_pressure;BME280_temperature;BME280_humidity;BME280_pressure;Samples;Min_cycle;Max_cycle;Signal;HPM_P1;HPM_P2
2022/04/26 03:36:11;;;;;;;16.17;10.60;;;11.00;99.90;;;;;;4915160;29;20059;-71
2022/04/26 03:38:41;;;;;;;15.25;11.65;;;11.00;99.90;;;;;;4898245;29;20032;-70
2022/04/26 03:41:07;;;;;;;14.25;10.93;;;11.00;99.90;;;;;;4915557;29;20036;-71
2022/04/26 03:43:33;;;;;;;14.02;10.30;;;10.90;99.90;;;;;;4897933;29;20024;-69
2022/04/26 03:45:58;;;;;;;12.25;10.57;;;10.90;99.90;;;;;;4898291;29;20043;-70
2022/04/26 03:48:24;;;;;;;13.52;11.07;;;10.80;99.90;;;;;;4915440;29;20056;-71
2022/04/26 03:50:50;;;;;;;15.50;10.48;;;10.80;99.90;;;;;;4897333;29;20111;-71
2022/04/26 03:53:16;;;;;;;12.68;10.40;;;10.70;99.90;;;;;;4915794;29;20111;-71
2022/04/26 03:55:42;;;;;;;13.18;10.63;;;10.70;99.90;;;;;;4897726;29;20099;-72
2022/04/26 03:58:07;;;;;;;14.13;11.48;;;10.80;99.90;;;;;;4915470;29;20387;-71
2022/04/26 04:00:33;;;;;;;13.85;10.38;;;10.80;99.90;;;;;;4897950;29;20032;-71
2022/04/26 04:03:00;;;;;;;14.63;12.05;;;10.80;99.90;;;;;;4915187;29;20035;-72
2022/04/26 04:05:25;;;;;;;13.50;10.95;;;10.80;99.90;;;;;;4915412;29;20402;-73
2022/04/26 04:07:51;;;;;;;15.57;11.85;;;10.90;99.90;;;;;;4914833;29;20034;-72
2022/04/26 04:10:16;;;;;;;13.02;11.38;;;10.90;99.90;;;;;;4898437;29;20034;-72
2022/04/26 04:12:42;;;;;;;16.52;11.60;;;10.90;99.90;;;;;;4914602;29;20024;-73
2022/04/26 04:15:08;;;;;;;12.82;10.73;;;10.80;99.90;;;;;;4915359;29;20028;-71
2022/04/26 04:17:34;;;;;;;12.40;11.02;;;10.60;99.90;;;;;;4914694;29;20055;-71
2022/04/26 04:19:59;;;;;;;17.77;12.02;;;10.70;99.90;;;;;;4915354;29;20032;-72
2022/04/26 04:22:25;;;;;;;13.43;12.02;;;10.70;99.90;;;;;;4915684;29;20138;-71
2022/04/26 04:24:51;;;;;;;14.15;11.48;;;10.80;99.90;;;;;;4897641;29;20070;-72
2022/04/26 04:27:16;;;;;;;12.95;11.55;;;10.70;99.90;;;;;;4915261;29;20395;-72
2022/04/26 04:29:43;;;;;;;14.38;11.98;;;10.90;99.90;;;;;;4897933;29;20461;-72
2022/04/26 04:32:08;;;;;;;23.00;12.40;;;10.90;99.90;;;;;;4901639;29;20028;-71
2022/04/26 04:34:34;;;;;;;18.75;12.35;;;11.00;99.90;;;;;;4902580;29;20327;-72
2022/04/26 04:36:59;;;;;;;16.10;12.27;;;11.10;99.90;;;;;;4920025;29;20035;-71
2022/04/26 04:39:27;;;;;;;18.55;12.68;;;11.10;99.90;;;;;;4919695;29;20032;-71
2022/04/26 04:41:53;;;;;;;16.75;13.68;;;11.10;99.90;;;;;;4918317;29;20041;-71
2022/04/26 04:44:19;;;;;;;17.13;13.55;;;11.00;99.90;;;;;;4918926;29;20107;-71
2022/04/26 04:46:45;;;;;;;17.13;13.27;;;11.00;99.90;;;;;;4901404;29;20048;-71
2022/04/26 04:49:11;;;;;;;19.35;13.80;;;11.00;99.90;;;;;;4901968;29;20048;-71
2022/04/26 04:51:37;;;;;;;17.52;14.15;;;10.70;99.90;;;;;;4918149;29;20032;-71
2022/04/26 04:54:04;;;;;;;21.23;14.25;;;10.60;99.90;;;;;;4918823;29;20028;-72
2022/04/26 04:56:30;;;;;;;16.65;13.23;;;10.60;99.90;;;;;;4918783;29;20028;-71
2022/04/26 04:58:56;;;;;;;17.88;13.10;;;10.70;99.90;;;;;;4901143;29;20028;-71
2022/04/26 05:01:22;;;;;;;17.35;13.85;;;10.70;99.90;;;;;;4901830;29;20134;-72
2022/04/26 05:03:48;;;;;;;20.20;14.35;;;10.80;99.90;;;;;;4918091;29;20111;-72
2022/04/26 05:06:15;;;;;;;18.17;13.63;;;10.80;99.90;;;;;;4918427;29;20047;-72
2022/04/26 05:08:45;;;;;;;17.17;13.27;;;10.80;99.90;;;;;;4918179;29;20032;-71
2022/04/26 05:11:11;;;;;;;18.10;13.55;;;10.80;99.90;;;;;;4901565;29;20029;-71
2022/04/26 05:13:37;;;;;;;19.60;13.00;;;10.80;99.90;;;;;;4900962;29;20047;-72
2022/04/26 05:16:03;;;;;;;18.48;14.02;;;10.80;99.90;;;;;;4901670;29;20059;-72
2022/04/26 05:18:29;;;;;;;16.33;13.18;;;10.80;99.90;;;;;;4918051;29;20070;-72
2022/04/26 05:20:55;;;;;;;19.50;13.98;;;10.80;99.90;;;;;;4917797;29;20116;-71
2022/04/26 05:26:05;;;;;;;20.75;15.88;;;10.70;99.90;;;;;;4918107;29;20083;-72
2022/04/26 05:28:31;;;;;;;24.08;15.88;;;10.80;99.90;;;;;;4918254;29;20028;-72
2022/04/26 05:30:57;;;;;;;16.83;14.02;;;10.80;99.90;;;;;;4900137;29;20406;-71
2022/04/26 05:33:25;;;;;;;18.27;14.05;;;10.80;99.90;;;;;;4900915;29;20036;-72
2022/04/26 05:35:50;;;;;;;16.77;13.90;;;10.70;99.90;;;;;;4900225;29;20127;-71
2022/04/26 05:38:16;;;;;;;18.33;14.20;;;10.80;99.90;;;;;;4917465;29;20104;-71
2022/04/26 05:40:42;;;;;;;17.35;13.63;;;10.80;99.90;;;;;;4900010;29;20024;-72
2022/04/26 05:43:08;;;;;;;20.80;15.52;;;10.70;99.90;;;;;;4917616;29;20071;-72
2022/04/26 05:45:34;;;;;;;17.15;13.65;;;10.80;99.90;;;;;;4917664;29;20063;-72
2022/04/26 05:48:00;;;;;;;17.42;13.93;;;10.80;99.90;;;;;;4916676;29;20406;-72
2022/04/26 05:50:26;;;;;;;17.73;14.15;;;10.70;99.90;;;;;;4917309;29;20064;-72
2022/04/26 05:52:51;;;;;;;21.73;14.63;;;10.40;99.90;;;;;;4916521;29;20035;-74
2022/04/26 05:55:17;;;;;;;18.30;14.13;;;10.50;99.90;;;;;;4910270;29;20039;-73
2022/04/26 05:57:44;;;;;;;20.15;15.23;;;10.60;99.90;;;;;;4910938;29;20066;-73
2022/04/26 06:00:12;;;;;;;19.02;14.32;;;10.50;99.90;;;;;;4907555;29;20027;-73
2022/04/26 06:02:37;;;;;;;17.35;14.77;;;10.50;99.90;;;;;;4922751;29;20390;-72
2022/04/26 06:05:03;;;;;;;17.75;14.88;;;10.50;99.90;;;;;;4933183;29;20035;-71
2022/04/26 06:07:29;;;;;;;16.42;13.38;;;10.60;99.90;;;;;;4915367;29;20039;-70
2022/04/26 06:09:56;;;;;;;16.23;12.93;;;10.70;99.90;;;;;;4909791;29;20043;-73
2022/04/26 06:12:26;;;;;;;16.00;13.52;;;10.60;99.90;;;;;;4919165;29;20023;-74
2022/04/26 06:15:01;;;;;;;15.65;13.77;;;10.60;99.90;;;;;;4915654;29;20098;-72
2022/04/26 06:17:27;;;;;;;16.85;12.75;;;10.70;99.90;;;;;;4900220;29;20387;-73
2022/04/26 06:19:53;;;;;;;16.88;12.23;;;10.60;99.90;;;;;;4916448;29;20039;-72
2022/04/26 06:22:19;;;;;;;15.73;11.55;;;10.60;99.90;;;;;;4912518;29;20032;-71
2022/04/26 06:24:44;;;;;;;14.98;11.35;;;10.70;99.90;;;;;;4917298;29;20027;-71
2022/04/26 06:27:10;;;;;;;16.10;11.80;;;10.80;99.90;;;;;;4918906;29;20099;-71
2022/04/26 06:29:36;;;;;;;16.73;12.55;;;10.70;99.90;;;;;;4919632;29;20035;-80
2022/04/26 06:32:02;;;;;;;19.48;9.60;;;11.50;99.90;;;;;;4934884;29;20102;-76
2022/04/26 06:34:28;;;;;;;15.07;11.05;;;12.00;99.90;;;;;;4933448;29;20032;-82
2022/04/26 06:36:54;;;;;;;13.23;9.93;;;12.50;99.90;;;;;;4936388;29;20410;-80
2022/04/26 06:39:20;;;;;;;14.18;11.95;;;12.80;99.90;;;;;;4936481;29;20050;-76
2022/04/26 06:41:46;;;;;;;16.65;11.85;;;12.50;99.90;;;;;;4935019;29;20127;-74
2022/04/26 06:44:12;;;;;;;14.60;10.93;;;12.20;99.90;;;;;;4933333;29;20513;-75
2022/04/26 06:46:39;;;;;;;12.68;10.73;;;11.90;99.90;;;;;;4917399;29;20036;-73
2022/04/26 06:49:05;;;;;;;13.23;10.13;;;11.60;99.90;;;;;;4909845;29;20048;-73
2022/04/26 06:51:35;;;;;;;17.48;11.55;;;11.40;99.90;;;;;;4902677;29;20315;-73
2022/04/26 06:54:01;;;;;;;14.25;11.02;;;11.20;99.90;;;;;;4931428;29;20124;-71
2022/04/26 06:56:26;;;;;;;14.30;11.35;;;11.20;99.90;;;;;;4917669;29;20048;-73
2022/04/26 06:58:52;;;;;;;17.45;11.88;;;11.10;99.90;;;;;;4923493;29;20040;-72
2022/04/26 07:01:18;;;;;;;14.50;12.20;;;11.10;99.90;;;;;;4913606;29;20032;-73
2022/04/26 07:03:44;;;;;;;13.90;11.50;;;11.00;99.90;;;;;;4917395;29;20028;-73
2022/04/26 07:06:09;;;;;;;17.77;13.40;;;11.10;99.90;;;;;;4905272;29;20039;-73
2022/04/26 07:08:35;;;;;;;17.17;13.18;;;11.10;99.90;;;;;;4935117;29;20038;-73
2022/04/26 07:11:01;;;;;;;17.73;12.88;;;10.90;99.90;;;;;;4935040;29;20085;-69
2022/04/26 07:13:27;;;;;;;17.15;13.75;;;11.00;99.90;;;;;;4917055;29;20036;-71
2022/04/26 07:15:53;;;;;;;17.52;13.48;;;11.00;99.90;;;;;;4923854;29;20032;-72
2022/04/26 07:18:18;;;;;;;16.48;13.02;;;11.10;99.90;;;;;;4912791;29;20418;-72
2022/04/26 07:20:44;;;;;;;18.42;14.60;;;11.00;99.90;;;;;;4925541;29;20119;-71
2022/04/26 07:23:12;;;;;;;20.08;14.70;;;11.00;99.90;;;;;;4930247;29;20191;-71
2022/04/26 07:25:38;;;;;;;21.33;14.07;;;11.00;99.90;;;;;;4906510;29;20039;-72
2022/04/26 07:28:04;;;;;;;16.20;12.70;;;11.10;99.90;;;;;;4904966;29;20035;-72
2022/04/26 07:30:34;;;;;;;16.95;13.45;;;11.10;99.90;;;;;;4930450;29;20449;-72
2022/04/26 07:35:49;;;;;;;15.48;12.10;;;11.20;99.90;;;;;;4924650;29;20047;-73
2022/04/26 07:38:15;;;;;;;17.23;13.02;;;11.20;99.90;;;;;;4923834;29;20424;-72
2022/04/26 07:40:42;;;;;;;17.85;13.57;;;11.20;99.90;;;;;;4933426;29;20527;-72
2022/04/26 07:43:07;;;;;;;19.95;13.80;;;11.20;99.90;;;;;;4929813;29;20028;-72
2022/04/26 07:45:36;;;;;;;16.65;12.82;;;11.20;99.90;;;;;;4922846;29;20054;-73
2022/04/26 07:48:05;;;;;;;16.83;12.65;;;11.30;99.90;;;;;;4921209;29;20397;-74
2022/04/26 07:50:31;;;;;;;23.98;15.07;;;11.40;99.90;;;;;;4924424;29;20031;-75
2022/04/26 07:52:58;;;;;;;14.90;12.00;;;11.40;99.90;;;;;;4898557;29;20060;-74
2022/04/26 07:55:24;;;;;;;19.33;13.90;;;11.60;99.90;;;;;;4900890;29;20020;-74
2022/04/26 07:57:50;;;;;;;16.65;13.35;;;11.70;99.90;;;;;;4927229;29;20043;-74
2022/04/26 08:00:16;;;;;;;17.00;13.70;;;11.70;99.90;;;;;;4930784;29;20027;-74
2022/04/26 08:02:42;;;;;;;19.55;13.82;;;11.70;99.90;;;;;;4917124;29;20035;-73
2022/04/26 08:05:08;;;;;;;17.27;13.18;;;11.70;99.90;;;;;;4916477;29;20453;-73
2022/04/26 08:07:39;;;;;;;18.52;13.65;;;11.70;99.90;;;;;;4917078;29;20027;-71
2022/04/26 08:10:07;;;;;;;20.38;13.77;;;11.70;99.90;;;;;;4927091;29;20024;-77
2022/04/26 08:12:33;;;;;;;17.70;14.15;;;11.70;99.90;;;;;;4898689;29;20092;-71
2022/04/26 08:14:59;;;;;;;17.45;12.93;;;11.70;99.90;;;;;;4897454;29;20485;-72
2022/04/26 08:17:24;;;;;;;19.88;14.35;;;11.80;99.90;;;;;;4922055;29;20454;-73
2022/04/26 08:19:50;;;;;;;20.02;15.07;;;11.70;99.90;;;;;;4914903;29;20430;-72
2022/04/26 08:22:15;;;;;;;18.50;12.88;;;11.70;99.90;;;;;;4897991;29;20028;-72
2022/04/26 08:27:25;;;;;;;14.73;11.77;;;11.70;99.90;;;;;;4915500;29;20035;-72
2022/04/26 08:29:56;;;;;;;17.42;13.13;;;11.60;99.90;;;;;;4897681;29;20055;-72
2022/04/26 08:32:23;;;;;;;18.92;13.70;;;11.70;99.90;;;;;;4914889;29;20059;-72
2022/04/26 08:34:49;;;;;;;17.52;13.23;;;11.70;99.90;;;;;;4898176;29;20460;-73
2022/04/26 08:37:15;;;;;;;18.55;13.20;;;11.70;99.90;;;;;;4914606;29;20099;-74
2022/04/26 08:39:40;;;;;;;15.57;12.68;;;11.80;99.90;;;;;;4913858;29;20065;-73
2022/04/26 08:42:06;;;;;;;18.02;12.38;;;11.60;99.90;;;;;;4914437;29;20031;-73
2022/04/26 08:44:34;;;;;;;19.77;12.50;;;11.70;99.90;;;;;;4915764;29;20024;-73
2022/04/26 08:52:48;;;;;;;13.50;11.10;;;11.60;99.90;;;;;;4915100;29;20031;-72
2022/04/26 08:55:15;;;;;;;17.70;11.43;;;11.60;99.90;;;;;;4914655;29;20032;-72
2022/04/26 08:57:40;;;;;;;13.45;10.90;;;11.60;99.90;;;;;;4897902;29;20031;-71
2022/04/26 09:00:11;;;;;;;14.43;11.77;;;11.70;99.90;;;;;;4914000;29;20454;-71
2022/04/26 09:02:38;;;;;;;13.50;10.40;;;11.60;99.90;;;;;;4914995;29;20498;-72
2022/04/26 09:05:12;;;;;;;11.15;9.35;;;11.70;99.90;;;;;;4914588;29;20079;-72
2022/04/26 09:07:39;;;;;;;10.90;9.05;;;11.80;99.90;;;;;;4898164;29;20094;-72
2022/04/26 09:10:12;;;;;;;10.57;7.55;;;11.90;99.90;;;;;;4897373;29;20039;-71
2022/04/26 09:12:59;;;;;;;8.85;7.00;;;11.80;99.90;;;;;;4897830;29;20345;-71
2022/04/26 09:15:32;;;;;;;11.35;8.05;;;11.70;99.90;;;;;;4897633;29;20054;-72
2022/04/26 09:18:17;;;;;;;8.15;5.32;;;11.90;99.90;;;;;;4899655;29;20032;-72
2022/04/26 09:20:44;;;;;;;6.40;4.30;;;11.80;99.90;;;;;;4901677;29;20375;-71
2022/04/26 09:23:18;;;;;;;5.15;3.63;;;11.90;99.90;;;;;;4900881;29;20039;-71
2022/04/26 09:25:45;;;;;;;2.92;2.00;;;12.00;99.90;;;;;;4901324;29;20032;-73
2022/04/26 09:28:23;;;;;;;2.90;1.25;;;12.00;99.90;;;;;;4917368;29;20466;-72
2022/04/26 09:30:49;;;;;;;2.30;1.13;;;11.80;99.90;;;;;;4900795;29;20449;-72
2022/04/26 09:33:33;;;;;;;1.38;1.27;;;11.80;99.90;;;;;;4918231;29;20020;-73
2022/04/26 09:36:03;;;;;;;1.75;1.20;;;11.80;99.90;;;;;;4900688;29;20050;-72
2022/04/26 09:38:33;;;;;;;1.23;0.88;;;11.70;99.90;;;;;;4901328;29;20083;-73
2022/04/26 09:41:04;;;;;;;1.35;0.80;;;11.70;99.90;;;;;;4900652;29;20024;-72
2022/04/26 09:43:30;;;;;;;4.55;1.15;;;11.80;99.90;;;;;;4901052;29;20116;-72
2022/04/26 09:45:58;;;;;;;1.75;1.05;;;11.80;99.90;;;;;;4917096;29;20115;-73
2022/04/26 09:48:36;;;;;;;1.80;0.85;;;11.60;99.90;;;;;;4885109;29;20142;-74
2022/04/26 09:51:07;;;;;;;2.58;0.85;;;11.80;99.90;;;;;;4917552;29;20031;-72
2022/04/26 09:53:33;;;;;;;2.88;1.33;;;11.70;99.90;;;;;;4917807;29;20099;-73
2022/04/26 09:56:04;;;;;;;2.38;0.95;;;11.70;99.90;;;;;;4900389;29;20540;-73
2022/04/26 09:58:31;;;;;;;1.50;1.08;;;11.50;99.90;;;;;;4901716;29;20111;-74
2022/04/26 10:01:00;;;;;;;1.33;1.05;;;11.60;99.90;;;;;;4900585;29;20078;-75
2022/04/26 10:03:31;;;;;;;1.80;1.15;;;11.70;99.90;;;;;;4901335;29;20036;-74
2022/04/26 10:06:02;;;;;;;3.00;1.10;;;11.70;99.90;;;;;;4900691;29;20131;-74
2022/04/26 10:08:30;;;;;;;4.25;1.40;;;11.70;99.90;;;;;;4917808;29;20025;-73
2022/04/26 10:10:57;;;;;;;2.25;1.50;;;11.70;99.90;;;;;;4917142;29;20028;-74
2022/04/26 10:13:35;;;;;;;2.15;1.60;;;11.50;99.90;;;;;;4917370;29;20344;-73
2022/04/26 10:16:12;;;;;;;2.83;1.65;;;11.50;99.90;;;;;;4917040;29;20024;-74
2022/04/26 10:18:43;;;;;;;2.75;1.90;;;11.70;99.90;;;;;;4917255;29;20191;-74
2022/04/26 10:21:09;;;;;;;3.08;1.90;;;11.60;99.90;;;;;;4900146;29;20062;-75
2022/04/26 10:23:51;;;;;;;1.95;1.77;;;11.60;99.90;;;;;;4900291;29;20114;-73
2022/04/26 10:26:22;;;;;;;3.70;2.15;;;11.60;99.90;;;;;;4917163;29;20036;-73
2022/04/26 10:28:50;;;;;;;4.50;2.03;;;11.50;99.90;;;;;;4899136;29;20067;-73
2022/04/26 10:31:17;;;;;;;4.90;3.28;;;11.40;99.90;;;;;;4917466;29;20374;-73
2022/04/26 10:33:44;;;;;;;7.05;3.50;;;11.40;99.90;;;;;;4917239;29;20024;-74
2022/04/26 10:36:28;;;;;;;5.72;3.85;;;11.40;99.90;;;;;;4899285;29;20024;-73
2022/04/26 10:39:06;;;;;;;6.13;4.82;;;11.50;99.90;;;;;;4921550;29;20071;-74
2022/04/26 10:41:37;;;;;;;7.45;5.25;;;11.50;99.90;;;;;;4919614;29;20027;-74
2022/04/26 10:44:21;;;;;;;6.45;5.70;;;11.50;99.90;;;;;;4935808;29;20099;-72
2022/04/26 10:47:07;;;;;;;7.00;5.72;;;11.60;99.90;;;;;;4936343;29;20044;-72
2022/04/26 10:49:33;;;;;;;6.70;4.57;;;11.60;99.90;;;;;;4918155;29;20045;-74
2022/04/26 10:54:45;;;;;;;6.63;4.10;;;11.50;99.90;;;;;;4918007;29;20115;-73
2022/04/26 10:57:18;;;;;;;6.53;4.75;;;11.50;99.90;;;;;;4911062;29;20127;-71
2022/04/26 10:59:49;;;;;;;6.95;4.10;;;11.40;99.90;;;;;;4925519;29;20055;-72
2022/04/26 11:02:19;;;;;;;7.05;4.32;;;11.20;99.90;;;;;;4907909;29;20034;-71
2022/04/26 11:04:46;;;;;;;4.82;3.72;;;11.40;99.90;;;;;;4912292;29;20102;-73
2022/04/26 11:07:15;;;;;;;3.60;3.03;;;11.60;99.90;;;;;;4924893;29;20036;-73
2022/04/26 11:09:49;;;;;;;7.18;3.85;;;11.70;99.90;;;;;;4900096;29;20039;-72
2022/04/26 11:12:17;;;;;;;7.15;4.38;;;11.80;99.90;;;;;;4900462;29;20075;-72
2022/04/26 11:14:44;;;;;;;5.07;3.63;;;11.90;99.90;;;;;;4911793;29;20021;-73
2022/04/26 11:17:10;;;;;;;4.13;3.67;;;11.80;99.90;;;;;;4916593;29;20055;-73
2022/04/26 11:19:46;;;;;;;3.60;3.30;;;11.80;99.90;;;;;;4900213;29;20084;-73
2022/04/26 11:22:15;;;;;;;6.30;3.17;;;11.80;99.90;;;;;;4899722;29;20121;-73
2022/04/26 11:30:29;;;;;;;6.15;1.42;;;11.90;99.90;;;;;;4917242;29;20134;-72
2022/04/26 11:32:59;;;;;;;2.42;1.75;;;11.70;99.90;;;;;;4922139;29;20111;-73
2022/04/26 11:35:25;;;;;;;3.50;1.40;;;11.50;99.90;;;;;;4912234;29;20036;-73
2022/04/26 11:37:54;;;;;;;2.50;2.05;;;11.50;99.90;;;;;;4913677;29;20028;-73
2022/04/26 11:40:22;;;;;;;1.20;0.90;;;11.50;99.90;;;;;;4932597;29;20026;-73
2022/04/26 11:42:48;;;;;;;1.10;1.00;;;11.30;99.90;;;;;;4925322;29;20023;-72
2022/04/26 11:45:14;;;;;;;4.45;1.52;;;11.30;99.90;;;;;;4926385;29;20282;-73
2022/04/26 11:47:48;;;;;;;2.33;2.13;;;11.40;99.90;;;;;;4906259;29;20044;-72
2022/04/26 11:50:23;;;;;;;2.65;1.60;;;11.40;99.90;;;;;;4905232;29;20059;-72
2022/04/26 11:52:50;;;;;;;2.60;2.17;;;11.50;99.90;;;;;;4915554;29;20051;-71
2022/04/26 11:55:29;;;;;;;3.78;1.50;;;11.50;99.90;;;;;;4914680;29;20071;-72
2022/04/26 11:58:14;;;;;;;2.35;1.40;;;11.60;99.90;;;;;;4898356;29;20116;-72
2022/04/26 12:01:02;;;;;;;1.98;1.40;;;11.50;99.90;;;;;;4898164;29;20024;-74
2022/04/26 12:03:29;;;;;;;1.52;1.30;;;11.80;99.90;;;;;;4898431;29;20032;-75
2022/04/26 12:06:01;;;;;;;2.97;1.00;;;11.80;99.90;;;;;;4916086;29;20119;-75
2022/04/26 12:08:28;;;;;;;4.05;1.20;;;11.90;99.90;;;;;;4898196;29;20104;-76
2022/04/26 12:10:54;;;;;;;3.00;1.67;;;11.60;99.90;;;;;;4915081;29;20476;-75
2022/04/26 12:13:30;;;;;;;2.08;1.13;;;11.80;99.90;;;;;;4898489;29;20080;-77
2022/04/26 12:16:12;;;;;;;2.85;1.33;;;11.80;99.90;;;;;;4915785;29;20024;-75
2022/04/26 12:18:54;;;;;;;1.42;0.95;;;11.90;99.90;;;;;;4915512;29;20481;-76
2022/04/26 12:21:20;;;;;;;2.83;1.30;;;12.10;99.90;;;;;;4898528;29;20020;-75
2022/04/26 12:23:46;;;;;;;1.95;0.90;;;12.20;99.90;;;;;;4898425;29;20039;-76
2022/04/26 12:26:13;;;;;;;1.23;0.90;;;12.20;99.90;;;;;;4915428;29;20048;-77
2022/04/26 12:28:50;;;;;;;1.75;0.93;;;12.30;99.90;;;;;;4899330;29;20040;-75
2022/04/26 12:31:29;;;;;;;2.63;1.00;;;12.50;99.90;;;;;;4898302;29;20030;-75
2022/04/26 12:34:12;;;;;;;2.80;1.00;;;12.40;99.90;;;;;;4898978;29;20125;-78
2022/04/26 12:37:02;;;;;;;1.50;0.90;;;12.40;99.90;;;;;;4914947;29;20036;-76
2022/04/26 12:39:42;;;;;;;1.50;1.02;;;12.50;99.90;;;;;;4898067;29;20123;-77
2022/04/26 12:42:39;;;;;;;1.90;1.55;;;12.80;99.90;;;;;;4914744;29;20032;-76
2022/04/26 12:45:12;;;;;;;1.80;1.27;;;12.80;99.90;;;;;;4882781;29;20042;-76
2022/04/26 12:50:28;;;;;;;1.92;1.67;;;13.20;99.90;;;;;;4895562;29;20169;-76
2022/04/26 12:53:02;;;;;;;2.22;1.65;;;13.00;99.90;;;;;;4897048;29;20036;-78
2022/04/26 12:55:28;;;;;;;1.85;1.50;;;12.80;99.90;;;;;;4899380;29;20032;-76
2022/04/26 12:57:56;;;;;;;2.13;1.92;;;13.00;99.90;;;;;;4898129;29;20024;-77
2022/04/26 13:00:23;;;;;;;6.47;2.50;;;13.00;99.90;;;;;;4899188;29;20135;-78
2022/04/26 13:02:51;;;;;;;3.17;2.25;;;13.10;99.90;;;;;;4899729;29;20036;-75
2022/04/26 13:05:19;;;;;;;2.22;1.48;;;13.30;99.90;;;;;;4897814;29;20047;-75
2022/04/26 13:07:48;;;;;;;2.33;1.90;;;13.40;99.90;;;;;;4898356;29;20025;-77
2022/04/26 13:10:16;;;;;;;3.58;2.13;;;13.50;99.90;;;;;;4897301;29;20522;-75
2022/04/26 13:12:42;;;;;;;2.28;2.05;;;13.50;99.90;;;;;;4898299;29;20059;-75
2022/04/26 13:15:08;;;;;;;3.33;1.95;;;13.60;99.90;;;;;;4896802;29;20025;-76
2022/04/26 13:17:36;;;;;;;2.80;2.30;;;13.70;99.90;;;;;;4898830;29;20060;-75
2022/04/26 13:20:06;;;;;;;4.50;2.67;;;13.70;99.90;;;;;;4897309;29;20028;-73
2022/04/26 13:22:35;;;;;;;2.88;2.58;;;13.50;99.90;;;;;;4897792;29;20108;-76
2022/04/26 13:25:03;;;;;;;6.20;2.83;;;13.70;99.90;;;;;;4897799;29;20021;-73
2022/04/26 13:27:30;;;;;;;4.07;3.13;;;13.80;99.90;;;;;;4898002;29;20075;-75
2022/04/26 13:29:56;;;;;;;7.20;2.38;;;14.00;99.90;;;;;;4899232;29;20120;-76
2022/04/26 13:32:21;;;;;;;5.50;3.22;;;14.00;99.90;;;;;;4896879;29;20064;-74
2022/04/26 13:34:48;;;;;;;3.63;2.50;;;13.80;99.90;;;;;;4898569;29;20426;-74
2022/04/26 13:37:14;;;;;;;3.97;3.10;;;13.60;99.90;;;;;;4896635;29;20105;-73
2022/04/26 13:39:41;;;;;;;3.95;3.45;;;13.60;99.90;;;;;;4898680;29;20021;-74
2022/04/26 13:42:07;;;;;;;4.28;3.78;;;13.40;99.90;;;;;;4897035;29;20033;-74
2022/04/26 13:44:33;;;;;;;5.15;3.92;;;13.20;99.90;;;;;;4898932;29;20068;-74
2022/04/26 13:47:02;;;;;;;5.00;4.05;;;13.10;99.90;;;;;;4897802;29;20422;-73
2022/04/26 13:49:27;;;;;;;4.50;3.88;;;13.00;99.90;;;;;;4917772;29;20028;-74
2022/04/26 13:51:53;;;;;;;5.85;4.70;;;12.70;99.90;;;;;;4900525;29;20024;-75
2022/04/26 13:54:19;;;;;;;5.35;4.75;;;12.60;99.90;;;;;;4916972;29;20020;-74
2022/04/26 13:56:49;;;;;;;6.55;4.22;;;12.40;99.90;;;;;;4900725;29;20163;-74
2022/04/26 13:59:15;;;;;;;7.35;4.25;;;12.40;99.90;;;;;;4899642;29;20130;-76
2022/04/26 14:01:41;;;;;;;5.82;4.78;;;12.30;99.90;;;;;;4900040;29;20039;-74
2022/04/26 14:04:07;;;;;;;5.85;4.35;;;12.30;99.90;;;;;;4899673;29;20032;-75
2022/04/26 14:06:33;;;;;;;4.88;4.20;;;12.20;99.90;;;;;;4917551;29;20075;-76
2022/04/26 14:08:58;;;;;;;7.97;5.00;;;12.20;99.90;;;;;;4899952;29;20028;-75
2022/04/26 14:11:24;;;;;;;6.30;4.65;;;12.30;99.90;;;;;;4899757;29;20064;-75
2022/04/26 14:22:04;;;;;;;5.13;4.60;;;11.90;99.90;;;;;;4917004;29;20027;-74
2022/04/26 14:24:29;;;;;;;5.07;4.57;;;11.80;99.90;;;;;;4900015;29;20027;-74
2022/04/26 14:26:57;;;;;;;10.98;5.45;;;11.90;99.90;;;;;;4921395;29;20028;-75
2022/04/26 14:29:23;;;;;;;7.28;5.47;;;12.00;99.90;;;;;;4905049;29;20489;-76
2022/04/26 14:31:50;;;;;;;9.10;5.90;;;12.00;99.90;;;;;;4904803;29;20028;-77
2022/04/26 14:34:16;;;;;;;6.03;4.88;;;11.90;99.90;;;;;;4917443;29;20024;-76
2022/04/26 14:36:41;;;;;;;5.78;5.10;;;12.00;99.90;;;;;;4900104;29;20442;-75
2022/04/26 14:39:07;;;;;;;6.60;4.82;;;12.00;99.90;;;;;;4916588;29;20036;-73
2022/04/26 14:41:34;;;;;;;6.90;5.60;;;11.90;99.90;;;;;;4916760;29;20032;-74
2022/04/26 14:44:00;;;;;;;6.60;5.07;;;12.00;99.90;;;;;;4914668;29;20465;-72
2022/04/26 14:46:28;;;;;;;8.95;5.50;;;11.90;99.90;;;;;;4933510;29;20063;-74
2022/04/26 14:48:54;;;;;;;6.78;5.00;;;11.90;99.90;;;;;;4915530;29;20063;-75
2022/04/26 14:51:20;;;;;;;4.78;4.28;;;11.90;99.90;;;;;;4929933;29;20038;-74
2022/04/26 14:53:45;;;;;;;5.78;4.30;;;12.00;99.90;;;;;;4915706;29;20389;-76
2022/04/26 14:56:11;;;;;;;10.82;5.00;;;12.00;99.90;;;;;;4899940;29;20071;-73
2022/04/26 14:58:37;;;;;;;5.05;4.22;;;12.10;99.90;;;;;;4899729;29;20367;-74
2022/04/26 15:01:02;;;;;;;7.47;4.60;;;12.20;99.90;;;;;;4903554;29;20342;-75
2022/04/26 15:03:30;;;;;;;10.48;5.60;;;12.20;99.90;;;;;;4934835;29;20110;-72
2022/04/26 15:05:58;;;;;;;8.70;5.57;;;12.30;99.90;;;;;;4918054;29;20032;-72
2022/04/26 15:11:08;;;;;;;7.10;4.95;;;12.40;99.90;;;;;;4931279;29;20398;-72
2022/04/26 15:19:03;;;;;;;8.38;5.05;;;12.50;99.90;;;;;;4934119;29;20393;-72
2022/04/26 15:21:29;;;;;;;9.10;5.55;;;12.60;99.90;;;;;;4934513;29;20115;-72
2022/04/26 15:23:55;;;;;;;8.85;5.38;;;12.50;99.90;;;;;;4934801;29;20445;-71
2022/04/26 15:26:23;;;;;;;8.02;5.72;;;12.50;99.90;;;;;;4917024;29;20126;-73
2022/04/26 15:28:49;;;;;;;7.55;5.40;;;12.30;99.90;;;;;;4917701;29;20031;-72
2022/04/26 15:31:18;;;;;;;8.73;6.05;;;12.40;99.90;;;;;;4934314;29;20038;-72
2022/04/26 15:33:48;;;;;;;7.30;5.38;;;12.20;99.90;;;;;;4917817;29;20062;-74
2022/04/26 15:36:16;;;;;;;8.30;5.07;;;12.20;99.90;;;;;;4900622;29;20032;-72
2022/04/26 15:38:43;;;;;;;10.10;5.97;;;12.50;99.90;;;;;;4915646;29;20043;-71
2022/04/26 15:41:09;;;;;;;7.15;4.97;;;12.90;99.90;;;;;;4919657;29;20166;-73
2022/04/26 15:43:37;;;;;;;12.55;6.30;;;12.90;99.90;;;;;;4934609;29;20462;-73
2022/04/26 15:46:04;;;;;;;6.13;5.40;;;12.70;99.90;;;;;;4917652;29;20382;-71
2022/04/26 15:48:30;;;;;;;8.35;6.10;;;12.50;99.90;;;;;;4913528;29;20063;-72
2022/04/26 15:50:57;;;;;;;8.15;6.10;;;12.30;99.90;;;;;;4930331;29;20119;-72
2022/04/26 15:53:23;;;;;;;7.30;5.68;;;12.30;99.90;;;;;;4929341;29;20029;-72
2022/04/26 15:55:49;;;;;;;15.25;6.40;;;12.10;99.90;;;;;;4909010;29;20454;-71
2022/04/26 15:58:15;;;;;;;8.43;6.50;;;12.20;99.90;;;;;;4912950;29;20063;-70
2022/04/26 16:00:41;;;;;;;8.27;5.97;;;12.20;99.90;;;;;;4930021;29;20059;-71
2022/04/26 16:03:07;;;;;;;9.48;6.10;;;12.10;99.90;;;;;;4914040;29;20024;-72
2022/04/26 16:05:33;;;;;;;9.88;6.00;;;12.30;99.90;;;;;;4914326;29;20031;-71
2022/04/26 16:07:59;;;;;;;12.85;5.78;;;12.50;99.90;;;;;;4929711;29;20115;-71
2022/04/26 16:21:23;;;;;;;8.07;6.30;;;12.50;99.90;;;;;;4914892;29;20059;-71
2022/04/26 16:23:49;;;;;;;7.20;5.30;;;12.30;99.90;;;;;;4929639;29;20144;-71
2022/04/26 16:26:19;;;;;;;7.55;5.97;;;12.30;99.90;;;;;;4925045;29;20040;-71
2022/04/26 16:28:47;;;;;;;8.80;6.13;;;12.20;99.90;;;;;;4909288;29;20158;-72
2022/04/26 16:31:13;;;;;;;8.57;6.30;;;12.20;99.90;;;;;;4907079;29;20061;-72
2022/04/26 16:33:38;;;;;;;7.65;6.20;;;12.10;99.90;;;;;;4900546;29;20029;-71
2022/04/26 16:36:04;;;;;;;10.98;6.47;;;12.20;99.90;;;;;;4896066;29;20080;-71
2022/04/26 16:38:31;;;;;;;8.23;6.35;;;12.10;99.90;;;;;;4903257;29;20386;-71
2022/04/26 16:40:57;;;;;;;9.02;6.43;;;12.00;99.90;;;;;;4910384;29;20027;-72
2022/04/26 16:43:22;;;;;;;7.97;6.10;;;12.00;99.90;;;;;;4912593;29;20055;-72
2022/04/26 16:45:49;;;;;;;10.10;6.32;;;12.10;99.90;;;;;;4912369;29;20354;-73
2022/04/26 16:48:15;;;;;;;6.63;5.63;;;12.00;99.90;;;;;;4911078;29;20068;-72
2022/04/26 16:50:41;;;;;;;7.78;5.72;;;12.00;99.90;;;;;;4910180;29;20024;-73
2022/04/26 16:53:07;;;;;;;5.35;4.72;;;11.90;99.90;;;;;;4910312;29;20035;-73
2022/04/26 16:55:33;;;;;;;8.57;5.90;;;11.90;99.90;;;;;;4902378;29;20211;-72
2022/04/26 16:58:01;;;;;;;11.45;5.10;;;11.90;99.90;;;;;;4911556;29;20032;-72
2022/04/26 17:00:28;;;;;;;6.15;5.43;;;11.90;99.90;;;;;;4900018;29;20120;-71
2022/04/26 17:02:54;;;;;;;5.60;5.00;;;11.80;99.90;;;;;;4909026;29;20083;-71
2022/04/26 17:05:22;;;;;;;5.45;4.82;;;11.80;99.90;;;;;;4928706;29;20043;-71
2022/04/26 17:07:51;;;;;;;6.88;4.20;;;11.70;99.90;;;;;;4913322;29;20047;-71
2022/04/26 17:10:18;;;;;;;5.55;4.35;;;11.70;99.90;;;;;;4925342;29;20115;-71